createdAt,value
2018-03-17T00:09:25.001Z,1.80
2018-03-17T00:19:26.762Z,1.80
2018-03-17T00:29:28.833Z,1.80
2018-03-17T00:39:31.471Z,1.60
2018-03-17T00:49:33.158Z,1.60
2018-03-17T00:59:35.674Z,1.60
2018-03-17T01:09:38.185Z,1.60
2018-03-17T01:19:39.871Z,1.50
2018-03-17T01:29:41.919Z,1.60
2018-03-17T01:39:44.553Z,1.50
2018-03-17T01:49:46.260Z,1.40
2018-03-17T01:59:48.095Z,1.30
2018-03-17T02:09:50.086Z,1.20
2018-03-17T02:19:51.911Z,1.40
2018-03-17T02:29:53.647Z,1.40
2018-03-17T02:39:55.687Z,1.40
2018-03-17T02:49:58.205Z,1.30
2018-03-17T03:00:00.771Z,1.10
2018-03-17T03:10:02.503Z,1.00
2018-03-17T03:20:04.185Z,1.00
2018-03-17T03:30:06.215Z,0.80
2018-03-17T03:40:08.857Z,0.80
2018-03-17T03:50:10.876Z,0.70
2018-03-17T04:00:14.501Z,0.60
2018-03-17T04:10:16.465Z,0.50
2018-03-17T04:20:18.411Z,0.60
2018-03-17T04:30:20.130Z,0.60
2018-03-17T04:40:21.697Z,0.60
2018-03-17T04:50:23.203Z,0.60
2018-03-17T05:00:24.700Z,0.60
2018-03-17T05:10:26.277Z,0.50
2018-03-17T05:20:27.880Z,0.30
2018-03-17T05:30:29.492Z,0.20
2018-03-17T05:40:36.428Z,0.20
2018-03-17T05:50:38.047Z,0.20
2018-03-17T06:00:39.582Z,0.30
2018-03-17T06:10:41.850Z,0.20
2018-03-17T06:20:43.355Z,0.10
2018-03-17T06:30:45.791Z,0.10
2018-03-17T06:40:47.284Z,0.00
2018-03-17T06:50:48.814Z,0.00
2018-03-17T07:00:51.087Z,-0.10
2018-03-17T07:10:52.622Z,-0.10
2018-03-17T07:20:54.892Z,0.10
2018-03-17T07:30:56.416Z,0.10
2018-03-17T07:40:57.957Z,0.10
2018-03-17T07:50:59.511Z,0.00
2018-03-17T08:01:01.093Z,0.10
2018-03-17T08:11:02.682Z,0.20
2018-03-17T08:21:04.226Z,0.30
2018-03-17T08:31:05.745Z,0.50
2018-03-17T08:41:08.036Z,0.60
2018-03-17T08:51:09.581Z,0.50
2018-03-17T09:01:11.139Z,0.40
2018-03-17T09:11:13.203Z,0.30
2018-03-17T09:21:15.197Z,0.40
2018-03-17T09:31:16.879Z,0.30
2018-03-17T09:41:18.521Z,0.40
2018-03-17T09:51:20.902Z,0.30
2018-03-17T10:01:23.383Z,0.50
2018-03-17T10:11:25.202Z,0.50
2018-03-17T10:21:27.038Z,0.30
2018-03-17T10:31:29.604Z,0.00
2018-03-17T10:41:31.292Z,-0.10
2018-03-17T10:51:33.133Z,-0.10
2018-03-17T11:01:41.030Z,-0.10
2018-03-17T11:11:44.057Z,-0.10
2018-03-17T11:21:46.728Z,0.00
2018-03-17T11:31:49.336Z,0.00
2018-03-17T11:41:51.138Z,0.10
2018-03-17T11:51:53.115Z,-0.10
2018-03-17T12:01:54.985Z,-0.10
2018-03-17T12:11:56.723Z,0.10
2018-03-17T12:21:58.449Z,-0.10
2018-03-17T12:32:00.417Z,-0.10
2018-03-17T12:42:02.294Z,0.00
2018-03-17T12:52:04.251Z,-0.10
2018-03-17T13:02:06.111Z,-0.10
2018-03-17T13:12:08.444Z,-0.10
2018-03-17T13:22:10.648Z,-0.30
2018-03-17T13:32:30.703Z,-0.30
2018-03-17T13:42:32.575Z,-0.40
2018-03-17T13:52:41.079Z,-0.60
2018-03-17T14:02:42.813Z,-0.60
2018-03-17T14:12:45.365Z,-0.60
2018-03-17T14:22:47.074Z,-0.70
2018-03-17T14:32:48.887Z,-0.90
2018-03-17T14:42:50.815Z,-0.90
2018-03-17T14:52:52.733Z,-0.90
2018-03-17T15:02:54.551Z,-0.90
2018-03-17T15:12:56.829Z,-1.00
2018-03-17T15:22:58.823Z,-1.00
2018-03-17T15:33:01.484Z,-1.00
2018-03-17T15:43:03.197Z,-1.10
2018-03-17T15:53:05.009Z,-1.20
2018-03-17T16:03:08.506Z,-1.20
2018-03-17T16:13:10.173Z,-1.30
2018-03-17T16:23:11.955Z,-1.20
2018-03-17T16:33:14.225Z,-1.30
2018-03-17T16:43:17.796Z,-1.40
2018-03-17T16:53:25.005Z,-1.40
2018-03-17T17:03:31.108Z,-1.40
2018-03-17T17:13:36.705Z,-1.50
2018-03-17T17:23:42.521Z,-1.50
2018-03-17T17:33:50.223Z,-1.50
2018-03-17T17:43:57.176Z,-1.50
2018-03-17T17:54:16.158Z,-1.50
2018-03-17T18:04:18.562Z,-1.50
2018-03-17T18:14:20.219Z,-1.60
2018-03-17T18:24:21.846Z,-1.50
2018-03-17T18:34:24.485Z,-1.40
2018-03-17T18:44:34.797Z,-1.40
2018-03-17T18:54:39.351Z,-1.40
2018-03-17T19:04:42.817Z,-1.40
2018-03-17T19:14:47.478Z,-1.40
2018-03-17T19:24:52.838Z,-1.40
2018-03-17T19:34:58.385Z,-1.40
2018-03-17T19:45:02.290Z,-1.50
2018-03-17T19:55:04.597Z,-1.40
2018-03-17T20:05:08.483Z,-1.40
2018-03-17T20:15:14.592Z,-1.50
2018-03-17T20:25:24.032Z,-1.60
2018-03-17T20:35:27.599Z,-1.50
2018-03-17T20:45:30.617Z,-1.50
2018-03-17T20:55:35.797Z,-1.50
2018-03-17T21:05:39.571Z,-1.50
2018-03-17T21:15:42.120Z,-1.50
2018-03-17T21:25:45.754Z,-1.50
2018-03-17T21:35:47.711Z,-1.60
2018-03-17T21:45:54.954Z,-1.50
2018-03-17T21:56:01.517Z,-1.60
2018-03-17T22:06:04.795Z,-1.70
2018-03-17T22:16:17.552Z,-1.70
2018-03-17T22:26:24.207Z,-1.60
2018-03-17T22:36:29.960Z,-1.70
2018-03-17T22:46:32.739Z,-1.60
2018-03-17T22:56:37.037Z,-1.50
2018-03-17T23:06:42.142Z,-1.50
2018-03-17T23:16:47.042Z,-1.50
2018-03-17T23:26:50.224Z,-1.60
2018-03-17T23:36:55.354Z,-1.50
2018-03-17T23:46:58.230Z,-1.60
2018-03-17T23:57:04.066Z,-1.90
